Terminal Aerodrome Forecast
Issued by NWS

Home | Current Version | Previous Version | Text Only | Print | Product List | Glossary On
Versions: 1 2 3 4 5 6 7 8 9 10 11 12 13 14 15 16 17 18 19 20 21 22 23
411
FTUS46 KMFR 161154
TAFRBG
TAF
KRBG 161154Z 1612/1712 00000KT 2SM BR OVC002
     FM162000 VRB03KT 3SM BR OVC006
     FM162200 00000KT P6SM SCT250
     FM170500 00000KT 2SM BR BKN250
     FM170700 00000KT 1/2SM FG OVC007
     FM170800 00000KT 1/2SM FG OVC003=

USA.gov is the U.S. government's official web portal to all federal, state and local government web resources and services.